West Texas City, Texas
Current Conditions -  °F | °C
As of 3:52 PM on Wednesday 28 Jan 2015 (Local Time) from KGLS Reporting Station
Clear Clear  
Wind Chill: 65°   Ceiling: Unl
Heat Index: 65°   Visibility: 10mi
Dew Point: 57°   Wind: 14mph
Humidity: 75%   Direction: 180°S
Pressure: 30.17"   Gusts: NA
Location:  29.4192°N, 94.9833°W
Report Text: KGLS 282152Z 18012KT 10SM CLR 18/14 A3017 RMK AO2 SLP215 T01830139
Loading
Personal Weather Stations






























Interactive Weather Map New forecast layout! Learn more

10-Day Weather Forecast

Advertisements
Track Severe Weather on mobile